新潟空港の過去48時間の天気

新潟空港 (Niigata)

現在時刻: 10/23 20:39 JST (10/23 11:39 UTC) 以下の時間は現地時間です。

過去48時間のMETAR気象情報
時間 風向 風速(m/s) 視程 気温(℃) 湿度(%) 気圧(hPa) 天気現象
23 20:00 東南東 2 10km以上 17 83 1020
23 19:00 北東 2 10km以上 18 83 1019
23 18:00 北北東 2 10km以上 19 78 1019
23 17:00 2 10km以上 19 78 1018
23 16:00 北北西 2 10km以上 19 68 1018
23 15:00 2 10km以上 20 68 1017
23 14:00 北北西 2 10km以上 20 68 1017
23 13:00 北北西 3 10km以上 20 68 1017
23 12:00 北北西 3 10km以上 20 73 1017
23 11:00 2 10km以上 20 73 1017
23 10:00 2 10km以上 20 83 1017
23 09:00 3 10km以上 17 88 1017
23 08:00 南南東 2 10km以上 15 94 1017
23 07:00 南東 2 10km以上 13 94 1016
23 06:10 2 10km以上 13 94 1016
22 06:10 北北西 2 10km以上 15 94 1015 弱い雨
21 21:00 3 10km以上 18 73 1017
RJSN 231100Z 12004KT 9999 FEW030 BKN/// 17/14 Q1020
RJSN 231000Z 05004KT 9999 FEW030 BKN/// 18/15 Q1019
RJSN 230900Z 02004KT 9999 FEW030 BKN/// 19/15 Q1019
RJSN 230800Z 35003KT 9999 FEW030 BKN/// 19/15 Q1018
RJSN 230700Z 34003KT 9999 FEW030 BKN/// 19/13 Q1018
RJSN 230600Z 35003KT 9999 FEW040 BKN/// 20/14 Q1017
RJSN 230500Z 33003KT 300V360 9999 FEW040 BKN/// 20/14 Q1017
RJSN 230400Z 34006KT 9999 FEW030 BKN/// 20/14 Q1017
RJSN 230300Z 34005KT 9999 FEW030 SCT/// 20/15 Q1017
RJSN 230200Z 35004KT 9999 FEW020 20/15 Q1017
RJSN 230100Z 08003KT 360V170 9999 FEW020 SCT030 20/17 Q1017
RJSN 230000Z 18005KT 9999 FEW020 17/15 Q1017
RJSN 222300Z 15004KT 9999 FEW015 SCT030 15/14 Q1017
RJSN 222200Z 14003KT 9999 FEW015 BKN030 13/12 Q1016
RJSN 222110Z 17004KT 9999 FEW015 SCT030 13/12 Q1016 RMK 1CU015 3CU030 A3000
RJSN 212110Z 34003KT 320V020 9999 -RA FEW020 SCT060 BKN100 15/14 Q1015 RMK 1CU020 3SC060 7AC100 A2999
RJSN 211200Z 10006KT 9999 FEW030 SCT160 BKN180 18/13 Q1017